Tropical Cyclones
[Index]
Main Index Home Page Stock Weather Photos Extreme Storms Discussion Storm News and Storm Chasing Reports Tropical Cyclones / Hurricanes / Typhoons Weather Data and Links Wild Fires / Bushfires Weather Observation Techniques Weather Picture Catalogue Tornado Pictures and Reports Stock Video Footage and DVDs for sale
Season 1989-1990 Tropical Cyclone DETY Track Map
Season 1989-1990 Summaries: [BoM-AU] [JTWC-AU] [JTWC-SIO] [JTWC-SPAC] [JTWC-SH]
<<- Previous TC | JTWC 1989-1990 Season | Next TC ->>

click for intensity scale information  Lat/long Grid: Show Hide

 Date Labels: Show Hide

Joint Typhoon Warning Centre Cyclone Data

Name: DETY

30 Jan 1990 18:00 UTC to 08 Feb 1990 00:00 UTC

    date/time    lat    long     hPa   cat  kts
1990-01-30 18    9.0    70.0                  20          
1990-01-31 00    9.1    70.0                  20          
1990-01-31 06    9.3    69.9                  20          
1990-01-31 12    9.5    69.8                  20          
1990-01-31 18    9.7    69.6                  20          
1990-02-01 00    9.8    69.5                  20          
1990-02-01 06    9.9    69.5                  20          
1990-02-01 12   10.0    69.5                  20          
1990-02-01 18   10.1    69.5                  20          
1990-02-02 00   10.2    69.5                  30          
1990-02-02 06   10.9    69.8                  30          
1990-02-02 12   11.5    69.8                  35          
1990-02-02 18   12.1    69.8            1     40          
1990-02-03 00   12.7    69.8            1     50          
1990-02-03 06   13.3    69.6            2     65          
1990-02-03 12   14.2    69.2            3     75          
1990-02-03 18   15.0    68.4            3     85          
1990-02-04 00   15.6    67.8            3     85          
1990-02-04 06   16.0    67.3            3     90          
1990-02-04 12   16.1    67.0            3     95          
1990-02-04 18   16.1    66.9            3     95          
1990-02-05 00   16.2    66.8            3     90          
1990-02-05 06   16.4    66.8            3     90          
1990-02-05 12   16.6    67.0            3     85          
1990-02-05 18   16.7    67.5            3     80          
1990-02-06 00   16.9    68.2            3     80          
1990-02-06 06   17.1    69.2            3     75          
1990-02-06 12   17.3    70.2            2     70          
1990-02-06 18   17.5    71.4            2     65          
1990-02-07 00   17.6    72.6            2     60          
1990-02-07 06   17.6    73.6            2     55          
1990-02-07 12   17.0    74.5            1     50          
1990-02-07 18   16.0    74.4            1     40          
1990-02-08 00   15.6    74.1                  30          
Winds are 1-min average.

Tropical cyclone tracks developed by Michael Bath using data from the Joint Typhoon Warning Centre Best Tracks and Google Maps.


[Australian Severe Weather index] [Copyright Notice] [Email Contacts] [Search This Site] [Privacy Policy]
Document: tropical_cyclone_dety.htm Updated: 18 September 2016